Sunday, February 07, 2016
15:15 UTC
  |  Log In   |  Register Free
Airport Search:

Northeast Philadelphia Airport
(KPNE)

FAA data valid effective Dec 10 2015 - Feb 4 2016 (unless otherwise noted).

 
 
 
 
 
 
 
 
 
 
 
 
 
 
Current Aviation Weather for KPNE

Weather Summary


The most recent METAR observation for PNE was updated at: 12:54 UTC
METAR for KPNE is not available. Closest METAR is for KVAY
KPNE  (most recent observation was updatred at 71:45 UTC)
071454Z AUTO 00000KT 10SM CLR 04/M03 A3020 RMK AO2 SLP229 T00441033 56000 TSNO

KVAY  (11.3 nm NW)   (most recent observation was updated at 71:45 UTC)
071454Z AUTO 00000KT 10SM CLR 03/M02 A3019 RMK AO2 SLP223 T00281022 58001

KLOM  (12.2 nm SE)   (most recent observation was updated at 71:45 UTC)
071455Z AUTO 00000KT 10SM 02/M02 A3017 RMK AO1

TAF for KPNE is not available.
KPNE
071136Z 0712/0812 00000KT P6SM SKC FM071400 01004KT P6SM FEW200 FM072000 05006KT P6SM BKN200 FM080600 03011KT P6SM OVC100

KTTN  (14.8 nm SW)   (most recent observation was updatred at 71:13 UTC)
071136Z 0712/0812 VRB03KT P6SM SKC FM072000 06006KT P6SM SCT200 FM080600 03011KT P6SM BKN100


KPHL  (16.5 nm NE)   (most recent observation was updatred at 71:43 UTC)
AMD 071430Z 0715/0818 VRB03KT P6SM SCT200 FM071600 02004KT P6SM SCT200 FM072000 05006KT P6SM BKN200 FM080500 03010KT P6SM OVC100 FM081300 04013KT P6SM SCT035 OVC050
GlobalAir.com is loading additional information.
 Current Weather at PNE
36.0 F° (2.2 C°)

North winds at 0.0 mph
Pressure:
30.21 in
Humidity:
73%
Wind:
North at 0.0 mph
Dew Point:
28.0 F° (-2.2 C°)
Visibility:
8.00 mi
PNE NOAA Radar




Find All Airport Services Find A Hotel Find A Rental Car Find A Golf Course Find A Restaurant $100 Hamburger



Airport Weather Forecast for KPNE

Translated METAR for KPNE (1454 UTC)
METAR:
KPNE 071454Z AUTO 00000KT 10SM CLR 04/M03 A3020 RMK AO2 SLP229 T00441033 56000 TSNO
Conditions at:
KPNE (Northeast Philadelphia, PA) observed 1454 UTC 07 February 2016
Temperature:
4°C (39.2°F)
Dewpoint:
-3°C (26.6°F) [RH = 60.3]
Pressure:
30.2 inches Hg (1022.7 mb)
pressure at sea level is 229 in Hg
Winds:
from the N (000 degrees) at 0 mph (0 knots: 0 m/s)
Visibility:
10 mile(s)
Ceiling:
at least 12,000 feet AGL
Clouds:
Clear below 12,000 feet AGL
Remarks:
site is un-manned
site is automated and HAS a precipitation sensor

Translated TAF for KPNE (Northeast Philadelphia, PA) (1136 UTC)
TAF text:
KPNE 071136Z 0712/0812 00000KT P6SM SKC
Forecast period:
Sunday Feb 07 2016 12:00 UTC - Monday Feb 08 2016 12:00 UTC
Forecast type:
FROM: standard forecast or significant change
Winds:
from the N (000 degrees) at 0 mph (0 knots: 0 m/s)
Visibility:
6 or more mile(s) (9.7+ km)
Ceiling:
at least 12,000 feet AGL
Clouds:
Clear Skies
Weather:
no significant weather observed at this time
TAF text:
FM071400 01004KT P6SM FEW200
Forecast period:
Sunday Feb 07 2016 14:00 UTC - Sunday Feb 07 2016 20:00 UTC
Forecast type:
FROM: standard forecast or significant change
Winds:
from the N (010 degrees) at 4.6 mph (4 knots: 2.1 m/s)
Visibility:
6 or more mile(s) (9.7+ km)
Ceiling:
at least 12,000 feet AGL
Clouds:
Few Clouds at 20,000 feet AGL
Weather:
no significant weather observed at this time
TAF text:
FM072000 05006KT P6SM BKN200
Forecast period:
Sunday Feb 07 2016 20:00 UTC - Monday Feb 08 2016 06:00 UTC
Forecast type:
FROM: standard forecast or significant change
Winds:
from the NE (050 degrees) at 6.9 mph (6 knots: 3.1 m/s)
Visibility:
6 or more mile(s) (9.7+ km)
Ceiling:
20,000 feet AGL
Clouds:
Broken Cloud Cover at 20,000 feet AGL
Weather:
no significant weather observed at this time
TAF text:
FM080600 03011KT P6SM OVC100
Forecast period:
Monday Feb 08 2016 06:00 UTC - Monday Feb 08 2016 12:00 UTC
Forecast type:
FROM: standard forecast or significant change
Winds:
from the NNE (030 degrees) at 12.7 mph (11 knots: 5.7 m/s)
Visibility:
6 or more mile(s) (9.7+ km)
Ceiling:
10,000 feet AGL
Clouds:
Overcast Skies at 10,000 feet AGL
Weather:
no significant weather observed at this time
FBO's on the Field
FBO Company Facility Photos Services Transportation Aviation Fuel Prices: Prices include tax
Catering Weather Repair Courtesy Rental Type 100LL JetA JetA+ MOGAS 8087
 
Atlantic Aviation

This FBO has not yet been rated
FS:Independent
Last Updated: Feb-05
Login to update fuel prices
SS:
Contact Atlantic AviationMore FBO Information
 
North Philadelphia Jet Center

Currently rated 5 by 2 people
FS:Avfuel
Last Updated: Jan-04
Login to update fuel prices
SS:
Contact North Philadelphia Jet CenterMore FBO Information
 
Add another FBO Facility Photos Catering Weather Repair Courtesy Rental Type 100LL JetA JetA+ MOGAS 8087
Services Transportation Aviation Fuel Prices: Prices include tax


model-print
model-print
model-print
model-print